sensor_id;sensor_type;location;lat;lon;timestamp;P1;durP1;ratioP1;P2;durP2;ratioP2
54841;SDS011;40741;45.002;7.536;2024-01-10T00:02:00;30.92;;;20.40;;
54841;SDS011;40741;45.002;7.536;2024-01-10T00:04:26;33.70;;;19.77;;
54841;SDS011;40741;45.002;7.536;2024-01-10T00:06:52;32.38;;;20.45;;
54841;SDS011;40741;45.002;7.536;2024-01-10T00:09:18;36.67;;;22.38;;
54841;SDS011;40741;45.002;7.536;2024-01-10T00:11:44;32.25;;;21.15;;
54841;SDS011;40741;45.002;7.536;2024-01-10T00:14:10;37.42;;;21.25;;
54841;SDS011;40741;45.002;7.536;2024-01-10T00:16:36;33.80;;;21.38;;
54841;SDS011;40741;45.002;7.536;2024-01-10T00:19:02;31.27;;;20.83;;
54841;SDS011;40741;45.002;7.536;2024-01-10T00:21:28;38.90;;;21.70;;
54841;SDS011;40741;45.002;7.536;2024-01-10T00:23:54;35.72;;;21.77;;
54841;SDS011;40741;45.002;7.536;2024-01-10T00:26:20;35.85;;;21.58;;
54841;SDS011;40741;45.002;7.536;2024-01-10T00:28:46;35.40;;;21.50;;
54841;SDS011;40741;45.002;7.536;2024-01-10T00:31:13;36.17;;;23.08;;
54841;SDS011;40741;45.002;7.536;2024-01-10T00:33:39;37.20;;;22.60;;
54841;SDS011;40741;45.002;7.536;2024-01-10T00:36:05;37.97;;;21.95;;
54841;SDS011;40741;45.002;7.536;2024-01-10T00:38:31;37.85;;;22.95;;
54841;SDS011;40741;45.002;7.536;2024-01-10T00:40:57;42.58;;;24.13;;
54841;SDS011;40741;45.002;7.536;2024-01-10T00:43:23;38.05;;;22.23;;
54841;SDS011;40741;45.002;7.536;2024-01-10T00:45:49;38.25;;;23.13;;
54841;SDS011;40741;45.002;7.536;2024-01-10T00:48:16;38.35;;;22.60;;
54841;SDS011;40741;45.002;7.536;2024-01-10T00:50:45;39.40;;;23.23;;
54841;SDS011;40741;45.002;7.536;2024-01-10T00:53:11;34.88;;;22.48;;
54841;SDS011;40741;45.002;7.536;2024-01-10T00:55:38;39.63;;;22.90;;
54841;SDS011;40741;45.002;7.536;2024-01-10T00:58:04;40.35;;;22.75;;
54841;SDS011;40741;45.002;7.536;2024-01-10T01:00:31;31.02;;;21.50;;
54841;SDS011;40741;45.002;7.536;2024-01-10T01:02:57;40.53;;;22.52;;
54841;SDS011;40741;45.002;7.536;2024-01-10T01:05:23;37.58;;;21.42;;
54841;SDS011;40741;45.002;7.536;2024-01-10T01:07:49;33.30;;;20.55;;
54841;SDS011;40741;45.002;7.536;2024-01-10T01:10:15;32.53;;;21.15;;
54841;SDS011;40741;45.002;7.536;2024-01-10T01:12:41;34.10;;;20.83;;
54841;SDS011;40741;45.002;7.536;2024-01-10T01:15:07;34.38;;;20.90;;
54841;SDS011;40741;45.002;7.536;2024-01-10T01:17:33;33.45;;;21.35;;
54841;SDS011;40741;45.002;7.536;2024-01-10T01:19:59;36.33;;;20.73;;
54841;SDS011;40741;45.002;7.536;2024-01-10T01:22:25;32.40;;;21.17;;
54841;SDS011;40741;45.002;7.536;2024-01-10T01:24:51;32.80;;;20.92;;
54841;SDS011;40741;45.002;7.536;2024-01-10T01:27:17;36.47;;;20.35;;
54841;SDS011;40741;45.002;7.536;2024-01-10T01:29:43;35.53;;;21.15;;
54841;SDS011;40741;45.002;7.536;2024-01-10T01:32:10;33.92;;;20.42;;
54841;SDS011;40741;45.002;7.536;2024-01-10T01:34:36;34.70;;;21.20;;
54841;SDS011;40741;45.002;7.536;2024-01-10T01:37:02;38.60;;;22.33;;
54841;SDS011;40741;45.002;7.536;2024-01-10T01:39:29;36.22;;;21.60;;
54841;SDS011;40741;45.002;7.536;2024-01-10T01:41:55;38.35;;;22.40;;
54841;SDS011;40741;45.002;7.536;2024-01-10T01:44:21;36.50;;;23.27;;
54841;SDS011;40741;45.002;7.536;2024-01-10T01:46:47;36.05;;;20.85;;
54841;SDS011;40741;45.002;7.536;2024-01-10T01:49:13;35.97;;;22.67;;
54841;SDS011;40741;45.002;7.536;2024-01-10T01:51:39;36.30;;;22.17;;
54841;SDS011;40741;45.002;7.536;2024-01-10T01:54:06;36.60;;;22.70;;
54841;SDS011;40741;45.002;7.536;2024-01-10T01:56:36;36.30;;;21.83;;
54841;SDS011;40741;45.002;7.536;2024-01-10T01:59:03;39.47;;;22.95;;
54841;SDS011;40741;45.002;7.536;2024-01-10T02:01:30;36.08;;;22.60;;
54841;SDS011;40741;45.002;7.536;2024-01-10T02:03:56;39.13;;;23.23;;
54841;SDS011;40741;45.002;7.536;2024-01-10T02:06:22;38.30;;;22.55;;
54841;SDS011;40741;45.002;7.536;2024-01-10T02:08:48;35.25;;;22.42;;
54841;SDS011;40741;45.002;7.536;2024-01-10T02:11:14;36.78;;;21.65;;
54841;SDS011;40741;45.002;7.536;2024-01-10T02:13:40;35.42;;;22.15;;
54841;SDS011;40741;45.002;7.536;2024-01-10T02:16:06;36.88;;;22.48;;
54841;SDS011;40741;45.002;7.536;2024-01-10T02:18:32;39.67;;;23.52;;
54841;SDS011;40741;45.002;7.536;2024-01-10T02:20:59;35.55;;;22.75;;
54841;SDS011;40741;45.002;7.536;2024-01-10T02:23:25;37.78;;;22.02;;
54841;SDS011;40741;45.002;7.536;2024-01-10T02:25:51;38.97;;;21.88;;
54841;SDS011;40741;45.002;7.536;2024-01-10T02:28:18;37.67;;;23.20;;
54841;SDS011;40741;45.002;7.536;2024-01-10T02:30:44;35.30;;;21.67;;
54841;SDS011;40741;45.002;7.536;2024-01-10T02:33:10;34.97;;;22.67;;
54841;SDS011;40741;45.002;7.536;2024-01-10T02:35:36;35.55;;;23.67;;
54841;SDS011;40741;45.002;7.536;2024-01-10T02:38:02;39.38;;;22.48;;
54841;SDS011;40741;45.002;7.536;2024-01-10T02:40:28;38.67;;;23.42;;
54841;SDS011;40741;45.002;7.536;2024-01-10T02:42:54;35.88;;;22.40;;
54841;SDS011;40741;45.002;7.536;2024-01-10T02:45:20;37.38;;;22.98;;
54841;SDS011;40741;45.002;7.536;2024-01-10T02:47:46;37.15;;;22.50;;
54841;SDS011;40741;45.002;7.536;2024-01-10T02:50:12;37.78;;;23.08;;
54841;SDS011;40741;45.002;7.536;2024-01-10T02:52:38;38.50;;;21.75;;
54841;SDS011;40741;45.002;7.536;2024-01-10T02:55:04;37.92;;;23.15;;
54841;SDS011;40741;45.002;7.536;2024-01-10T02:57:31;33.40;;;21.58;;
54841;SDS011;40741;45.002;7.536;2024-01-10T02:59:57;33.25;;;22.30;;
54841;SDS011;40741;45.002;7.536;2024-01-10T03:02:23;34.90;;;21.98;;
54841;SDS011;40741;45.002;7.536;2024-01-10T03:04:49;33.25;;;20.80;;
54841;SDS011;40741;45.002;7.536;2024-01-10T03:07:15;36.03;;;22.40;;
54841;SDS011;40741;45.002;7.536;2024-01-10T03:09:41;31.77;;;21.30;;
54841;SDS011;40741;45.002;7.536;2024-01-10T03:12:08;32.70;;;20.77;;
54841;SDS011;40741;45.002;7.536;2024-01-10T03:14:35;40.00;;;23.02;;
54841;SDS011;40741;45.002;7.536;2024-01-10T03:17:01;34.75;;;22.08;;
54841;SDS011;40741;45.002;7.536;2024-01-10T03:19:27;36.15;;;23.27;;
54841;SDS011;40741;45.002;7.536;2024-01-10T03:21:53;36.50;;;22.85;;
54841;SDS011;40741;45.002;7.536;2024-01-10T03:24:19;36.13;;;23.40;;
54841;SDS011;40741;45.002;7.536;2024-01-10T03:26:45;39.20;;;24.80;;
54841;SDS011;40741;45.002;7.536;2024-01-10T03:29:11;35.85;;;22.13;;
54841;SDS011;40741;45.002;7.536;2024-01-10T03:31:37;37.47;;;22.17;;
54841;SDS011;40741;45.002;7.536;2024-01-10T03:34:03;39.88;;;22.65;;
54841;SDS011;40741;45.002;7.536;2024-01-10T03:36:29;38.50;;;22.83;;
54841;SDS011;40741;45.002;7.536;2024-01-10T03:38:55;37.25;;;23.42;;
54841;SDS011;40741;45.002;7.536;2024-01-10T03:41:21;36.50;;;22.23;;
54841;SDS011;40741;45.002;7.536;2024-01-10T03:43:47;40.28;;;21.70;;
54841;SDS011;40741;45.002;7.536;2024-01-10T03:46:13;38.17;;;22.17;;
54841;SDS011;40741;45.002;7.536;2024-01-10T03:48:39;39.65;;;22.95;;
54841;SDS011;40741;45.002;7.536;2024-01-10T03:51:12;38.33;;;23.58;;
54841;SDS011;40741;45.002;7.536;2024-01-10T03:53:38;36.20;;;22.58;;
54841;SDS011;40741;45.002;7.536;2024-01-10T03:56:05;44.03;;;23.13;;
54841;SDS011;40741;45.002;7.536;2024-01-10T03:58:31;41.45;;;23.95;;
54841;SDS011;40741;45.002;7.536;2024-01-10T04:00:57;39.65;;;24.02;;
54841;SDS011;40741;45.002;7.536;2024-01-10T04:03:23;38.50;;;22.38;;
54841;SDS011;40741;45.002;7.536;2024-01-10T04:05:49;42.38;;;24.05;;
54841;SDS011;40741;45.002;7.536;2024-01-10T04:08:15;37.75;;;22.90;;
54841;SDS011;40741;45.002;7.536;2024-01-10T04:10:41;38.55;;;22.92;;
54841;SDS011;40741;45.002;7.536;2024-01-10T04:13:07;38.42;;;21.88;;
54841;SDS011;40741;45.002;7.536;2024-01-10T04:15:32;39.85;;;23.88;;
54841;SDS011;40741;45.002;7.536;2024-01-10T04:17:59;41.60;;;23.83;;
54841;SDS011;40741;45.002;7.536;2024-01-10T04:20:25;41.45;;;24.23;;
54841;SDS011;40741;45.002;7.536;2024-01-10T04:22:51;34.75;;;21.83;;
54841;SDS011;40741;45.002;7.536;2024-01-10T04:25:18;37.45;;;22.90;;
54841;SDS011;40741;45.002;7.536;2024-01-10T04:27:44;37.05;;;22.55;;
54841;SDS011;40741;45.002;7.536;2024-01-10T04:30:10;40.80;;;24.35;;
54841;SDS011;40741;45.002;7.536;2024-01-10T04:32:36;43.00;;;23.77;;
54841;SDS011;40741;45.002;7.536;2024-01-10T04:35:02;41.53;;;24.90;;
54841;SDS011;40741;45.002;7.536;2024-01-10T04:37:28;36.78;;;22.25;;
54841;SDS011;40741;45.002;7.536;2024-01-10T04:39:54;38.63;;;24.15;;
54841;SDS011;40741;45.002;7.536;2024-01-10T04:42:20;39.38;;;22.63;;
54841;SDS011;40741;45.002;7.536;2024-01-10T04:44:46;33.13;;;22.38;;
54841;SDS011;40741;45.002;7.536;2024-01-10T04:47:12;36.80;;;22.58;;
54841;SDS011;40741;45.002;7.536;2024-01-10T04:49:38;42.28;;;23.52;;
54841;SDS011;40741;45.002;7.536;2024-01-10T04:52:04;37.10;;;22.30;;
54841;SDS011;40741;45.002;7.536;2024-01-10T04:54:31;39.92;;;22.60;;
54841;SDS011;40741;45.002;7.536;2024-01-10T04:56:57;39.10;;;24.25;;
54841;SDS011;40741;45.002;7.536;2024-01-10T04:59:23;38.75;;;23.48;;
54841;SDS011;40741;45.002;7.536;2024-01-10T05:01:49;38.95;;;23.92;;
54841;SDS011;40741;45.002;7.536;2024-01-10T05:04:15;42.28;;;25.08;;
54841;SDS011;40741;45.002;7.536;2024-01-10T05:06:41;37.72;;;22.70;;
54841;SDS011;40741;45.002;7.536;2024-01-10T05:09:07;40.75;;;22.63;;
54841;SDS011;40741;45.002;7.536;2024-01-10T05:11:34;45.42;;;23.85;;
54841;SDS011;40741;45.002;7.536;2024-01-10T05:14:01;38.60;;;23.67;;
54841;SDS011;40741;45.002;7.536;2024-01-10T05:16:27;37.03;;;23.13;;
54841;SDS011;40741;45.002;7.536;2024-01-10T05:18:53;37.92;;;23.42;;
54841;SDS011;40741;45.002;7.536;2024-01-10T05:21:19;41.75;;;23.27;;
54841;SDS011;40741;45.002;7.536;2024-01-10T05:23:45;40.97;;;24.25;;
54841;SDS011;40741;45.002;7.536;2024-01-10T05:26:11;39.78;;;22.98;;
54841;SDS011;40741;45.002;7.536;2024-01-10T05:28:37;38.78;;;23.58;;
54841;SDS011;40741;45.002;7.536;2024-01-10T05:31:04;44.95;;;23.42;;
54841;SDS011;40741;45.002;7.536;2024-01-10T05:33:33;41.85;;;23.65;;
54841;SDS011;40741;45.002;7.536;2024-01-10T05:35:59;38.40;;;22.98;;
54841;SDS011;40741;45.002;7.536;2024-01-10T05:38:25;36.03;;;21.90;;
54841;SDS011;40741;45.002;7.536;2024-01-10T05:40:52;39.38;;;23.52;;
54841;SDS011;40741;45.002;7.536;2024-01-10T05:43:18;41.47;;;24.20;;
54841;SDS011;40741;45.002;7.536;2024-01-10T05:45:44;47.88;;;24.55;;
54841;SDS011;40741;45.002;7.536;2024-01-10T05:48:10;36.90;;;23.25;;
54841;SDS011;40741;45.002;7.536;2024-01-10T05:50:36;45.72;;;24.60;;
54841;SDS011;40741;45.002;7.536;2024-01-10T05:53:04;45.40;;;25.75;;
54841;SDS011;40741;45.002;7.536;2024-01-10T05:55:30;45.03;;;27.17;;
54841;SDS011;40741;45.002;7.536;2024-01-10T05:57:56;46.38;;;27.23;;
54841;SDS011;40741;45.002;7.536;2024-01-10T06:00:22;40.80;;;25.20;;
54841;SDS011;40741;45.002;7.536;2024-01-10T06:02:48;44.75;;;25.25;;
54841;SDS011;40741;45.002;7.536;2024-01-10T06:05:14;45.15;;;26.55;;
54841;SDS011;40741;45.002;7.536;2024-01-10T06:07:40;44.28;;;27.05;;
54841;SDS011;40741;45.002;7.536;2024-01-10T06:10:06;41.38;;;25.33;;
54841;SDS011;40741;45.002;7.536;2024-01-10T06:12:32;44.50;;;25.73;;
54841;SDS011;40741;45.002;7.536;2024-01-10T06:14:58;40.60;;;24.08;;
54841;SDS011;40741;45.002;7.536;2024-01-10T06:17:24;40.58;;;23.52;;
54841;SDS011;40741;45.002;7.536;2024-01-10T06:19:50;43.03;;;23.95;;
54841;SDS011;40741;45.002;7.536;2024-01-10T06:22:17;42.75;;;25.52;;
54841;SDS011;40741;45.002;7.536;2024-01-10T06:24:43;42.58;;;24.73;;
54841;SDS011;40741;45.002;7.536;2024-01-10T06:27:09;40.60;;;23.48;;
54841;SDS011;40741;45.002;7.536;2024-01-10T06:29:36;40.88;;;21.50;;
54841;SDS011;40741;45.002;7.536;2024-01-10T06:32:02;41.28;;;23.55;;
54841;SDS011;40741;45.002;7.536;2024-01-10T06:34:28;43.10;;;23.45;;
54841;SDS011;40741;45.002;7.536;2024-01-10T06:36:54;39.70;;;22.90;;
54841;SDS011;40741;45.002;7.536;2024-01-10T06:39:21;36.53;;;23.60;;
54841;SDS011;40741;45.002;7.536;2024-01-10T06:41:47;38.28;;;22.85;;
54841;SDS011;40741;45.002;7.536;2024-01-10T06:44:13;38.72;;;21.33;;
54841;SDS011;40741;45.002;7.536;2024-01-10T06:46:39;41.45;;;22.40;;
54841;SDS011;40741;45.002;7.536;2024-01-10T06:49:05;37.30;;;22.02;;
54841;SDS011;40741;45.002;7.536;2024-01-10T06:51:32;34.80;;;21.80;;
54841;SDS011;40741;45.002;7.536;2024-01-10T06:53:58;33.50;;;21.13;;
54841;SDS011;40741;45.002;7.536;2024-01-10T06:56:33;35.13;;;21.00;;
54841;SDS011;40741;45.002;7.536;2024-01-10T06:59:00;39.90;;;22.88;;
54841;SDS011;40741;45.002;7.536;2024-01-10T07:01:26;36.25;;;21.23;;
54841;SDS011;40741;45.002;7.536;2024-01-10T07:03:53;39.35;;;21.95;;
54841;SDS011;40741;45.002;7.536;2024-01-10T07:06:22;38.17;;;22.35;;
54841;SDS011;40741;45.002;7.536;2024-01-10T07:08:49;39.90;;;23.38;;
54841;SDS011;40741;45.002;7.536;2024-01-10T07:11:18;36.97;;;22.88;;
54841;SDS011;40741;45.002;7.536;2024-01-10T07:13:44;38.22;;;22.55;;
54841;SDS011;40741;45.002;7.536;2024-01-10T07:16:10;38.25;;;21.75;;
54841;SDS011;40741;45.002;7.536;2024-01-10T07:18:39;40.92;;;21.67;;
54841;SDS011;40741;45.002;7.536;2024-01-10T07:21:05;36.08;;;21.75;;
54841;SDS011;40741;45.002;7.536;2024-01-10T07:23:31;38.50;;;22.13;;
54841;SDS011;40741;45.002;7.536;2024-01-10T07:25:58;37.35;;;22.38;;
54841;SDS011;40741;45.002;7.536;2024-01-10T07:28:25;36.58;;;20.88;;
54841;SDS011;40741;45.002;7.536;2024-01-10T07:30:51;39.33;;;21.80;;
54841;SDS011;40741;45.002;7.536;2024-01-10T07:33:17;36.53;;;22.13;;
54841;SDS011;40741;45.002;7.536;2024-01-10T07:35:43;37.58;;;22.15;;
54841;SDS011;40741;45.002;7.536;2024-01-10T07:38:09;40.83;;;22.52;;
54841;SDS011;40741;45.002;7.536;2024-01-10T07:40:35;37.15;;;22.48;;
54841;SDS011;40741;45.002;7.536;2024-01-10T07:43:01;37.55;;;21.17;;
54841;SDS011;40741;45.002;7.536;2024-01-10T07:45:27;38.78;;;22.67;;
54841;SDS011;40741;45.002;7.536;2024-01-10T07:47:53;35.35;;;21.55;;
54841;SDS011;40741;45.002;7.536;2024-01-10T07:50:19;39.83;;;23.33;;
54841;SDS011;40741;45.002;7.536;2024-01-10T07:52:45;36.90;;;22.98;;
54841;SDS011;40741;45.002;7.536;2024-01-10T07:55:11;37.33;;;22.52;;
54841;SDS011;40741;45.002;7.536;2024-01-10T07:57:37;39.42;;;22.67;;
54841;SDS011;40741;45.002;7.536;2024-01-10T08:00:04;39.00;;;22.13;;
54841;SDS011;40741;45.002;7.536;2024-01-10T08:02:33;44.65;;;22.13;;
54841;SDS011;40741;45.002;7.536;2024-01-10T08:05:02;39.67;;;22.25;;
54841;SDS011;40741;45.002;7.536;2024-01-10T08:07:35;39.03;;;23.20;;
54841;SDS011;40741;45.002;7.536;2024-01-10T08:10:03;38.88;;;22.38;;
54841;SDS011;40741;45.002;7.536;2024-01-10T08:12:29;40.38;;;22.33;;
54841;SDS011;40741;45.002;7.536;2024-01-10T08:14:55;37.40;;;21.25;;
54841;SDS011;40741;45.002;7.536;2024-01-10T08:17:21;36.72;;;22.08;;
54841;SDS011;40741;45.002;7.536;2024-01-10T08:19:48;38.58;;;22.05;;
54841;SDS011;40741;45.002;7.536;2024-01-10T08:22:14;37.63;;;22.33;;
54841;SDS011;40741;45.002;7.536;2024-01-10T08:24:40;39.88;;;21.95;;
54841;SDS011;40741;45.002;7.536;2024-01-10T08:27:06;39.15;;;22.98;;
54841;SDS011;40741;45.002;7.536;2024-01-10T08:29:32;37.13;;;22.17;;
54841;SDS011;40741;45.002;7.536;2024-01-10T08:31:59;39.30;;;22.70;;
54841;SDS011;40741;45.002;7.536;2024-01-10T08:34:25;39.38;;;23.35;;
54841;SDS011;40741;45.002;7.536;2024-01-10T08:36:51;40.13;;;22.92;;
54841;SDS011;40741;45.002;7.536;2024-01-10T08:39:18;36.22;;;21.92;;
54841;SDS011;40741;45.002;7.536;2024-01-10T08:41:44;36.83;;;23.15;;
54841;SDS011;40741;45.002;7.536;2024-01-10T08:44:10;37.92;;;22.63;;
54841;SDS011;40741;45.002;7.536;2024-01-10T08:46:36;38.25;;;22.90;;
54841;SDS011;40741;45.002;7.536;2024-01-10T08:49:02;39.03;;;22.77;;
54841;SDS011;40741;45.002;7.536;2024-01-10T08:51:30;36.20;;;22.23;;
54841;SDS011;40741;45.002;7.536;2024-01-10T08:53:56;38.72;;;21.73;;
54841;SDS011;40741;45.002;7.536;2024-01-10T08:56:22;38.60;;;22.10;;
54841;SDS011;40741;45.002;7.536;2024-01-10T08:58:49;38.47;;;23.48;;
54841;SDS011;40741;45.002;7.536;2024-01-10T09:01:15;38.95;;;22.75;;
54841;SDS011;40741;45.002;7.536;2024-01-10T09:03:41;35.80;;;22.38;;
54841;SDS011;40741;45.002;7.536;2024-01-10T09:06:07;40.65;;;22.33;;
54841;SDS011;40741;45.002;7.536;2024-01-10T09:08:33;33.45;;;21.70;;
54841;SDS011;40741;45.002;7.536;2024-01-10T09:10:59;38.90;;;22.88;;
54841;SDS011;40741;45.002;7.536;2024-01-10T09:13:25;36.10;;;21.58;;
54841;SDS011;40741;45.002;7.536;2024-01-10T09:15:52;37.28;;;21.73;;
54841;SDS011;40741;45.002;7.536;2024-01-10T09:18:18;41.85;;;22.73;;
54841;SDS011;40741;45.002;7.536;2024-01-10T09:20:44;34.15;;;21.25;;
54841;SDS011;40741;45.002;7.536;2024-01-10T09:23:10;38.05;;;22.25;;
54841;SDS011;40741;45.002;7.536;2024-01-10T09:25:36;40.00;;;22.17;;
54841;SDS011;40741;45.002;7.536;2024-01-10T09:28:04;40.85;;;22.30;;
54841;SDS011;40741;45.002;7.536;2024-01-10T09:30:30;32.15;;;21.35;;
54841;SDS011;40741;45.002;7.536;2024-01-10T09:32:56;35.85;;;21.50;;
54841;SDS011;40741;45.002;7.536;2024-01-10T09:35:22;39.72;;;23.15;;
54841;SDS011;40741;45.002;7.536;2024-01-10T09:37:48;37.60;;;22.38;;
54841;SDS011;40741;45.002;7.536;2024-01-10T09:40:15;37.03;;;22.65;;
54841;SDS011;40741;45.002;7.536;2024-01-10T09:42:43;33.25;;;21.38;;
54841;SDS011;40741;45.002;7.536;2024-01-10T09:45:09;37.10;;;20.88;;
54841;SDS011;40741;45.002;7.536;2024-01-10T09:47:37;35.78;;;21.25;;
54841;SDS011;40741;45.002;7.536;2024-01-10T09:50:05;30.15;;;20.65;;
54841;SDS011;40741;45.002;7.536;2024-01-10T09:52:33;38.05;;;20.45;;
54841;SDS011;40741;45.002;7.536;2024-01-10T09:55:02;38.70;;;22.58;;
54841;SDS011;40741;45.002;7.536;2024-01-10T09:57:29;38.72;;;20.63;;
54841;SDS011;40741;45.002;7.536;2024-01-10T09:59:55;32.17;;;20.75;;
54841;SDS011;40741;45.002;7.536;2024-01-10T10:02:21;37.97;;;22.95;;
54841;SDS011;40741;45.002;7.536;2024-01-10T10:04:53;30.17;;;20.05;;
54841;SDS011;40741;45.002;7.536;2024-01-10T10:07:20;40.67;;;22.95;;
54841;SDS011;40741;45.002;7.536;2024-01-10T10:09:46;37.13;;;20.73;;
54841;SDS011;40741;45.002;7.536;2024-01-10T10:12:12;34.78;;;19.60;;
54841;SDS011;40741;45.002;7.536;2024-01-10T10:14:37;33.00;;;20.15;;
54841;SDS011;40741;45.002;7.536;2024-01-10T10:17:13;33.75;;;21.30;;
54841;SDS011;40741;45.002;7.536;2024-01-10T10:19:40;39.45;;;21.20;;
54841;SDS011;40741;45.002;7.536;2024-01-10T10:22:09;34.28;;;19.40;;
54841;SDS011;40741;45.002;7.536;2024-01-10T10:24:35;33.03;;;20.02;;
54841;SDS011;40741;45.002;7.536;2024-01-10T10:27:01;36.95;;;19.85;;
54841;SDS011;40741;45.002;7.536;2024-01-10T10:29:34;29.00;;;19.75;;
54841;SDS011;40741;45.002;7.536;2024-01-10T10:32:01;35.17;;;19.75;;
54841;SDS011;40741;45.002;7.536;2024-01-10T10:34:30;30.13;;;19.40;;
54841;SDS011;40741;45.002;7.536;2024-01-10T10:36:56;31.42;;;18.98;;
54841;SDS011;40741;45.002;7.536;2024-01-10T10:39:22;33.00;;;20.35;;
54841;SDS011;40741;45.002;7.536;2024-01-10T10:41:49;33.05;;;19.90;;
54841;SDS011;40741;45.002;7.536;2024-01-10T10:44:18;33.95;;;19.63;;
54841;SDS011;40741;45.002;7.536;2024-01-10T10:46:49;36.70;;;20.75;;
54841;SDS011;40741;45.002;7.536;2024-01-10T10:49:15;36.33;;;20.77;;
54841;SDS011;40741;45.002;7.536;2024-01-10T10:51:43;33.05;;;21.40;;
54841;SDS011;40741;45.002;7.536;2024-01-10T10:54:09;38.30;;;20.33;;
54841;SDS011;40741;45.002;7.536;2024-01-10T10:56:35;41.72;;;20.73;;
54841;SDS011;40741;45.002;7.536;2024-01-10T10:59:02;34.58;;;19.67;;
54841;SDS011;40741;45.002;7.536;2024-01-10T11:01:28;30.15;;;18.02;;
54841;SDS011;40741;45.002;7.536;2024-01-10T11:03:55;34.97;;;19.52;;
54841;SDS011;40741;45.002;7.536;2024-01-10T11:06:29;31.08;;;18.63;;
54841;SDS011;40741;45.002;7.536;2024-01-10T11:08:57;32.92;;;18.60;;
54841;SDS011;40741;45.002;7.536;2024-01-10T11:21:53;31.20;;;17.75;;
54841;SDS011;40741;45.002;7.536;2024-01-10T11:24:24;29.02;;;16.88;;
54841;SDS011;40741;45.002;7.536;2024-01-10T11:27:05;29.85;;;17.75;;
54841;SDS011;40741;45.002;7.536;2024-01-10T11:32:02;36.33;;;18.52;;
54841;SDS011;40741;45.002;7.536;2024-01-10T11:34:30;29.25;;;18.77;;
54841;SDS011;40741;45.002;7.536;2024-01-10T11:37:08;26.90;;;16.50;;
54841;SDS011;40741;45.002;7.536;2024-01-10T11:39:36;27.02;;;16.73;;
54841;SDS011;40741;45.002;7.536;2024-01-10T11:42:03;30.42;;;18.17;;
54841;SDS011;40741;45.002;7.536;2024-01-10T11:44:29;28.58;;;17.27;;
54841;SDS011;40741;45.002;7.536;2024-01-10T11:46:58;30.17;;;18.23;;
54841;SDS011;40741;45.002;7.536;2024-01-10T11:49:25;27.45;;;17.20;;
54841;SDS011;40741;45.002;7.536;2024-01-10T11:51:55;29.27;;;17.30;;
54841;SDS011;40741;45.002;7.536;2024-01-10T11:57:22;32.60;;;17.88;;
54841;SDS011;40741;45.002;7.536;2024-01-10T11:59:52;31.60;;;17.88;;
54841;SDS011;40741;45.002;7.536;2024-01-10T12:02:23;30.02;;;16.20;;
54841;SDS011;40741;45.002;7.536;2024-01-10T12:05:01;25.17;;;15.85;;
54841;SDS011;40741;45.002;7.536;2024-01-10T12:07:31;25.77;;;17.10;;
54841;SDS011;40741;45.002;7.536;2024-01-10T12:09:57;26.23;;;16.38;;
54841;SDS011;40741;45.002;7.536;2024-01-10T12:12:26;31.23;;;16.52;;
54841;SDS011;40741;45.002;7.536;2024-01-10T12:14:55;27.95;;;15.80;;
54841;SDS011;40741;45.002;7.536;2024-01-10T12:17:21;27.58;;;16.45;;
54841;SDS011;40741;45.002;7.536;2024-01-10T12:19:56;28.30;;;16.35;;
54841;SDS011;40741;45.002;7.536;2024-01-10T12:22:23;30.55;;;17.08;;
54841;SDS011;40741;45.002;7.536;2024-01-10T12:24:49;30.90;;;16.67;;
54841;SDS011;40741;45.002;7.536;2024-01-10T12:27:18;31.33;;;16.73;;
54841;SDS011;40741;45.002;7.536;2024-01-10T12:29:54;27.83;;;16.73;;
54841;SDS011;40741;45.002;7.536;2024-01-10T12:32:27;28.17;;;16.45;;
54841;SDS011;40741;45.002;7.536;2024-01-10T12:35:03;32.13;;;16.70;;
54841;SDS011;40741;45.002;7.536;2024-01-10T12:37:33;29.02;;;16.02;;
54841;SDS011;40741;45.002;7.536;2024-01-10T12:40:00;27.52;;;16.92;;
54841;SDS011;40741;45.002;7.536;2024-01-10T12:42:29;28.98;;;17.25;;
54841;SDS011;40741;45.002;7.536;2024-01-10T12:45:02;29.85;;;16.80;;
54841;SDS011;40741;45.002;7.536;2024-01-10T12:47:30;28.40;;;15.90;;
54841;SDS011;40741;45.002;7.536;2024-01-10T12:50:09;32.53;;;17.33;;
54841;SDS011;40741;45.002;7.536;2024-01-10T12:52:55;33.08;;;17.92;;
54841;SDS011;40741;45.002;7.536;2024-01-10T12:55:25;32.75;;;19.23;;
54841;SDS011;40741;45.002;7.536;2024-01-10T12:57:53;34.65;;;18.20;;
54841;SDS011;40741;45.002;7.536;2024-01-10T13:00:38;36.15;;;17.77;;
54841;SDS011;40741;45.002;7.536;2024-01-10T13:03:25;31.83;;;18.65;;
54841;SDS011;40741;45.002;7.536;2024-01-10T13:05:52;30.27;;;17.30;;
54841;SDS011;40741;45.002;7.536;2024-01-10T13:08:33;31.80;;;18.17;;
54841;SDS011;40741;45.002;7.536;2024-01-10T13:11:02;34.60;;;18.25;;
54841;SDS011;40741;45.002;7.536;2024-01-10T13:13:35;30.05;;;17.52;;
54841;SDS011;40741;45.002;7.536;2024-01-10T13:16:15;31.30;;;18.00;;
54841;SDS011;40741;45.002;7.536;2024-01-10T13:19:16;31.90;;;18.75;;
54841;SDS011;40741;45.002;7.536;2024-01-10T13:21:44;39.15;;;19.73;;
54841;SDS011;40741;45.002;7.536;2024-01-10T13:24:12;34.28;;;19.60;;
54841;SDS011;40741;45.002;7.536;2024-01-10T13:26:49;31.23;;;18.83;;
54841;SDS011;40741;45.002;7.536;2024-01-10T13:29:16;33.80;;;18.55;;
54841;SDS011;40741;45.002;7.536;2024-01-10T13:31:42;34.15;;;19.67;;
54841;SDS011;40741;45.002;7.536;2024-01-10T13:34:08;32.85;;;19.33;;
54841;SDS011;40741;45.002;7.536;2024-01-10T13:36:37;32.33;;;19.20;;
54841;SDS011;40741;45.002;7.536;2024-01-10T13:39:10;34.88;;;19.73;;
54841;SDS011;40741;45.002;7.536;2024-01-10T13:41:46;34.30;;;19.73;;
54841;SDS011;40741;45.002;7.536;2024-01-10T13:44:12;36.05;;;20.08;;
54841;SDS011;40741;45.002;7.536;2024-01-10T13:46:44;37.28;;;20.23;;
54841;SDS011;40741;45.002;7.536;2024-01-10T13:49:16;35.25;;;19.63;;
54841;SDS011;40741;45.002;7.536;2024-01-10T13:51:42;35.28;;;20.33;;
54841;SDS011;40741;45.002;7.536;2024-01-10T13:54:10;36.42;;;20.00;;
54841;SDS011;40741;45.002;7.536;2024-01-10T13:56:36;32.40;;;19.63;;
54841;SDS011;40741;45.002;7.536;2024-01-10T13:59:08;34.03;;;20.85;;
54841;SDS011;40741;45.002;7.536;2024-01-10T14:01:36;32.97;;;19.67;;
54841;SDS011;40741;45.002;7.536;2024-01-10T14:04:05;31.20;;;19.85;;
54841;SDS011;40741;45.002;7.536;2024-01-10T14:06:32;36.35;;;20.27;;
54841;SDS011;40741;45.002;7.536;2024-01-10T14:09:02;37.92;;;19.45;;
54841;SDS011;40741;45.002;7.536;2024-01-10T14:11:28;32.65;;;18.73;;
54841;SDS011;40741;45.002;7.536;2024-01-10T14:14:04;34.60;;;19.35;;
54841;SDS011;40741;45.002;7.536;2024-01-10T14:16:30;33.17;;;19.48;;
54841;SDS011;40741;45.002;7.536;2024-01-10T14:18:56;30.73;;;18.48;;
54841;SDS011;40741;45.002;7.536;2024-01-10T14:21:25;31.08;;;17.63;;
54841;SDS011;40741;45.002;7.536;2024-01-10T14:23:58;32.97;;;18.17;;
54841;SDS011;40741;45.002;7.536;2024-01-10T14:26:27;32.45;;;19.48;;
54841;SDS011;40741;45.002;7.536;2024-01-10T14:28:53;38.95;;;20.33;;
54841;SDS011;40741;45.002;7.536;2024-01-10T14:31:23;31.70;;;19.83;;
54841;SDS011;40741;45.002;7.536;2024-01-10T14:33:49;33.13;;;20.10;;
54841;SDS011;40741;45.002;7.536;2024-01-10T14:36:17;34.05;;;19.15;;
54841;SDS011;40741;45.002;7.536;2024-01-10T14:38:43;34.88;;;20.27;;